createdAt,value
2017-06-03T00:00:52.610Z,98752
2017-06-03T00:03:20.702Z,98745
2017-06-03T00:05:48.777Z,98748
2017-06-03T00:08:16.848Z,98746
2017-06-03T00:10:44.926Z,98738
2017-06-03T00:13:13.043Z,98739
2017-06-03T00:15:41.172Z,98743
2017-06-03T00:18:10.017Z,98750
2017-06-03T00:20:38.107Z,98752
2017-06-03T00:23:06.177Z,98741
2017-06-03T00:25:34.272Z,98745
2017-06-03T00:28:02.353Z,98744
2017-06-03T00:30:30.419Z,98739
2017-06-03T00:32:58.494Z,98735
2017-06-03T00:35:26.568Z,98742
2017-06-03T00:37:54.668Z,98740
2017-06-03T00:40:22.736Z,98739
2017-06-03T00:42:50.835Z,98730
2017-06-03T00:45:18.908Z,98745
2017-06-03T00:47:47.010Z,98734
2017-06-03T00:50:15.105Z,98731
2017-06-03T00:52:43.175Z,98727
2017-06-03T00:55:11.256Z,98732
2017-06-03T00:57:39.339Z,98732
2017-06-03T01:00:07.444Z,98739
2017-06-03T01:02:35.539Z,98734
2017-06-03T01:05:03.643Z,98735
2017-06-03T01:07:32.496Z,98735
2017-06-03T01:10:00.576Z,98736
2017-06-03T01:12:28.687Z,98733
2017-06-03T01:14:57.534Z,98732
2017-06-03T01:17:25.612Z,98727
2017-06-03T01:19:53.688Z,98732
2017-06-03T01:22:21.755Z,98733
2017-06-03T01:24:49.856Z,98738
2017-06-03T01:27:17.920Z,98731
2017-06-03T01:29:46.003Z,98736
2017-06-03T01:32:14.844Z,98731
2017-06-03T01:34:42.919Z,98728
2017-06-03T01:37:11.020Z,98722
2017-06-03T01:39:39.108Z,98728
2017-06-03T01:42:07.183Z,98730
2017-06-03T01:44:36.036Z,98725
2017-06-03T01:47:04.115Z,98723
2017-06-03T01:49:32.208Z,98728
2017-06-03T01:52:00.833Z,98727
2017-06-03T01:54:28.896Z,98721
2017-06-03T01:56:56.980Z,98704
2017-06-03T01:59:25.048Z,98713
2017-06-03T02:01:53.128Z,98709
2017-06-03T02:04:21.201Z,98707
2017-06-03T02:06:49.299Z,98709
2017-06-03T02:09:17.808Z,98707
2017-06-03T02:11:45.889Z,98701
2017-06-03T02:14:13.974Z,98704
2017-06-03T02:16:42.819Z,98710
2017-06-03T02:19:10.899Z,98706
2017-06-03T02:21:38.973Z,98703
2017-06-03T02:24:07.064Z,98711
2017-06-03T02:26:35.137Z,98710
2017-06-03T02:29:03.223Z,98709
2017-06-03T02:31:32.098Z,98708
2017-06-03T02:34:00.173Z,98704
2017-06-03T02:36:28.264Z,98702
2017-06-03T02:38:57.101Z,98710
2017-06-03T02:41:25.196Z,98706
2017-06-03T02:43:53.267Z,98699
2017-06-03T02:46:21.364Z,98700
2017-06-03T02:48:49.431Z,98688
2017-06-03T02:51:17.531Z,98710
2017-06-03T02:53:45.607Z,98705
2017-06-03T02:56:13.671Z,98711
2017-06-03T02:58:41.752Z,98702
2017-06-03T03:01:09.825Z,98710
2017-06-03T03:03:37.916Z,98710
2017-06-03T03:06:05.995Z,98706
2017-06-03T03:08:34.075Z,98708
2017-06-03T03:11:02.156Z,98704
2017-06-03T03:13:30.259Z,98694
2017-06-03T03:15:58.324Z,98695
2017-06-03T03:18:26.397Z,98688
2017-06-03T03:20:54.475Z,98689
2017-06-03T03:23:22.543Z,98693
2017-06-03T03:25:50.618Z,98684
2017-06-03T03:28:18.692Z,98685
2017-06-03T03:30:46.768Z,98690
2017-06-03T03:33:15.617Z,98686
2017-06-03T03:35:43.715Z,98689
2017-06-03T03:38:11.881Z,98697
2017-06-03T03:40:39.949Z,98694
2017-06-03T03:43:08.028Z,98692
2017-06-03T03:45:36.095Z,98690
2017-06-03T03:48:04.183Z,98685
2017-06-03T03:50:32.279Z,98687
2017-06-03T03:53:00.359Z,98675
2017-06-03T03:55:28.431Z,98673
2017-06-03T03:57:56.514Z,98673
2017-06-03T04:00:24.632Z,98672
2017-06-03T04:02:52.699Z,98667
2017-06-03T04:05:20.771Z,98677
2017-06-03T04:07:48.844Z,98676
2017-06-03T04:10:16.923Z,98688
2017-06-03T04:12:44.992Z,98692
2017-06-03T04:15:13.072Z,98697
2017-06-03T04:17:41.147Z,98696
2017-06-03T04:20:09.236Z,98699
2017-06-03T04:22:37.308Z,98685
2017-06-03T04:25:05.435Z,98685
2017-06-03T04:27:33.517Z,98696
2017-06-03T04:30:01.607Z,98693
2017-06-03T04:32:29.688Z,98691
2017-06-03T04:34:57.768Z,98696
2017-06-03T04:37:25.848Z,98701
2017-06-03T04:39:54.767Z,98705
2017-06-03T04:42:22.857Z,98702
2017-06-03T04:44:50.936Z,98706
2017-06-03T04:47:19.008Z,98704
2017-06-03T04:49:47.099Z,98705
2017-06-03T04:52:15.167Z,98706
2017-06-03T04:54:43.260Z,98705
2017-06-03T04:57:11.331Z,98712
2017-06-03T04:59:39.426Z,98703
2017-06-03T05:02:07.503Z,98703
2017-06-03T05:04:36.372Z,98713
2017-06-03T05:07:04.452Z,98700
2017-06-03T05:09:32.523Z,98709
2017-06-03T05:12:00.607Z,98706
2017-06-03T05:14:29.464Z,98707
2017-06-03T05:16:57.547Z,98707
2017-06-03T05:19:25.622Z,98706
2017-06-03T05:21:53.707Z,98707
2017-06-03T05:24:22.552Z,98714
2017-06-03T05:26:50.643Z,98711
2017-06-03T05:29:18.724Z,98700
2017-06-03T05:31:46.799Z,98705
2017-06-03T05:34:14.875Z,98704
2017-06-03T05:36:42.954Z,98708
2017-06-03T05:39:11.064Z,98713
2017-06-03T05:41:39.131Z,98702
2017-06-03T05:44:07.222Z,98709
2017-06-03T05:46:35.295Z,98700
2017-06-03T05:49:03.836Z,98709
2017-06-03T05:51:32.672Z,98700
2017-06-03T05:54:00.747Z,98715
2017-06-03T05:56:28.832Z,98704
2017-06-03T05:58:57.015Z,98711
2017-06-03T06:01:25.099Z,98719
2017-06-03T06:03:53.171Z,98716
2017-06-03T06:06:21.250Z,98713
2017-06-03T06:08:49.320Z,98711
2017-06-03T06:11:17.408Z,98713
2017-06-03T06:13:46.243Z,98707
2017-06-03T06:16:14.315Z,98713
2017-06-03T06:18:42.394Z,98708
2017-06-03T06:21:10.472Z,98708
2017-06-03T06:23:38.556Z,98709
2017-06-03T06:26:06.625Z,98711
2017-06-03T06:28:34.727Z,98713
2017-06-03T06:31:02.808Z,98706
2017-06-03T06:33:31.647Z,98697
2017-06-03T06:35:59.730Z,98706
2017-06-03T06:38:27.795Z,98704
2017-06-03T06:40:55.886Z,98697
2017-06-03T06:43:23.952Z,98693
2017-06-03T06:45:52.040Z,98699
2017-06-03T06:48:20.148Z,98701
2017-06-03T06:50:48.251Z,98698
2017-06-03T06:53:16.328Z,98698
2017-06-03T06:55:44.391Z,98689
2017-06-03T06:58:12.466Z,98700
2017-06-03T07:00:40.556Z,98692
2017-06-03T07:03:08.630Z,98700
2017-06-03T07:05:36.704Z,98693
2017-06-03T07:08:04.780Z,98695
2017-06-03T07:10:32.871Z,98692
2017-06-03T07:13:00.963Z,98706
2017-06-03T07:15:29.799Z,98707
2017-06-03T07:17:57.871Z,98697
2017-06-03T07:20:25.960Z,98708
2017-06-03T07:22:54.032Z,98701
2017-06-03T07:25:22.098Z,98700
2017-06-03T07:27:50.176Z,98690
2017-06-03T07:30:18.263Z,98689
2017-06-03T07:32:46.439Z,98681
2017-06-03T07:35:14.535Z,98683
2017-06-03T07:37:43.410Z,98682
2017-06-03T07:40:11.544Z,98671
2017-06-03T07:42:39.633Z,98684
2017-06-03T07:45:07.707Z,98685
2017-06-03T07:47:35.784Z,98675
2017-06-03T07:50:03.847Z,98680
2017-06-03T07:52:31.936Z,98677
2017-06-03T07:55:00.011Z,98668
2017-06-03T07:57:28.116Z,98675
2017-06-03T07:59:56.192Z,98671
2017-06-03T08:02:24.265Z,98669
2017-06-03T08:04:52.339Z,98671
2017-06-03T08:07:20.408Z,98665
2017-06-03T08:09:48.488Z,98670
2017-06-03T08:12:16.571Z,98663
2017-06-03T08:14:44.671Z,98660
2017-06-03T08:17:12.748Z,98652
2017-06-03T08:19:40.852Z,98651
2017-06-03T08:22:09.691Z,98657
2017-06-03T08:24:37.756Z,98651
2017-06-03T08:27:05.831Z,98657
2017-06-03T08:29:33.909Z,98646
2017-06-03T08:32:01.999Z,98636
2017-06-03T08:34:30.077Z,98629
2017-06-03T08:36:58.162Z,98630
2017-06-03T08:39:26.243Z,98625
2017-06-03T08:41:54.343Z,98626
2017-06-03T08:44:22.415Z,98629
2017-06-03T08:46:50.484Z,98632
2017-06-03T08:49:18.557Z,98622
2017-06-03T08:51:46.635Z,98616
2017-06-03T08:54:14.754Z,98621
2017-06-03T08:56:42.828Z,98619
2017-06-03T08:59:10.904Z,98618
2017-06-03T09:01:38.981Z,98621
2017-06-03T09:04:07.137Z,98618
2017-06-03T09:06:35.216Z,98604
2017-06-03T09:09:03.299Z,98611
2017-06-03T09:11:31.464Z,98601
2017-06-03T09:13:59.540Z,98603
2017-06-03T09:16:27.671Z,98610
2017-06-03T09:18:55.911Z,98614
2017-06-03T09:21:23.988Z,98606
2017-06-03T09:23:52.052Z,98603
2017-06-03T09:26:20.148Z,98598
2017-06-03T09:28:48.216Z,98595
2017-06-03T09:31:16.278Z,98599
2017-06-03T09:33:45.127Z,98598
2017-06-03T09:36:13.207Z,98594
2017-06-03T09:38:41.283Z,98597
2017-06-03T09:41:09.356Z,98590
2017-06-03T09:43:37.431Z,98595
2017-06-03T09:46:05.495Z,98590
2017-06-03T09:48:33.767Z,98593
2017-06-03T09:51:01.848Z,98587
2017-06-03T09:53:29.923Z,98588
2017-06-03T09:55:57.992Z,98591
2017-06-03T09:58:26.063Z,98591
2017-06-03T10:00:54.227Z,98586
2017-06-03T10:03:22.315Z,98585
2017-06-03T10:05:50.399Z,98584
2017-06-03T10:08:18.476Z,98577
2017-06-03T10:10:47.349Z,98575
2017-06-03T10:13:15.419Z,98579
2017-06-03T10:15:43.493Z,98567
2017-06-03T10:18:11.568Z,98567
2017-06-03T10:20:39.635Z,98569
2017-06-03T10:23:07.717Z,98568
2017-06-03T10:25:35.795Z,98563
2017-06-03T10:28:03.959Z,98564
2017-06-03T10:30:32.032Z,98558
2017-06-03T10:33:00.128Z,98558
2017-06-03T10:35:28.199Z,98559
2017-06-03T10:37:57.112Z,98555
2017-06-03T10:40:25.191Z,98554
2017-06-03T10:42:53.267Z,98543
2017-06-03T10:45:21.444Z,98541
2017-06-03T10:47:49.521Z,98546
2017-06-03T10:50:17.632Z,98540
2017-06-03T10:52:45.725Z,98541
2017-06-03T10:55:13.793Z,98526
2017-06-03T10:57:41.879Z,98519
2017-06-03T11:00:10.716Z,98516
2017-06-03T11:02:38.799Z,98517
2017-06-03T11:05:06.890Z,98505
2017-06-03T11:07:35.063Z,98502
2017-06-03T11:10:03.142Z,98497
2017-06-03T11:12:31.224Z,98496
2017-06-03T11:14:59.312Z,98496
2017-06-03T11:17:28.172Z,98488
2017-06-03T11:19:56.255Z,98483
2017-06-03T11:22:24.343Z,98474
2017-06-03T11:24:53.215Z,98479
2017-06-03T11:27:21.291Z,98472
2017-06-03T11:29:49.377Z,98462
2017-06-03T11:32:17.462Z,98470
2017-06-03T11:34:46.304Z,98464
2017-06-03T11:37:14.392Z,98467
2017-06-03T11:39:42.474Z,98462
2017-06-03T11:42:10.555Z,98449
2017-06-03T11:44:39.402Z,98447
2017-06-03T11:47:07.481Z,98452
2017-06-03T11:49:35.569Z,98447
2017-06-03T11:52:03.675Z,98445
2017-06-03T11:54:31.856Z,98435
2017-06-03T11:57:00.695Z,98446
2017-06-03T11:59:28.860Z,98448
2017-06-03T12:01:56.947Z,98441
2017-06-03T12:04:25.023Z,98442
2017-06-03T12:06:53.097Z,98435
2017-06-03T12:09:21.181Z,98435
2017-06-03T12:11:49.265Z,98431
2017-06-03T12:14:17.348Z,98425
2017-06-03T12:16:45.429Z,98422
2017-06-03T12:19:13.495Z,98421
2017-06-03T12:21:42.347Z,98424
2017-06-03T12:24:10.421Z,98419
2017-06-03T12:26:38.877Z,98416
2017-06-03T12:29:06.951Z,98413
2017-06-03T12:31:35.169Z,98410
2017-06-03T12:34:03.247Z,98404
2017-06-03T12:36:31.346Z,98401
2017-06-03T12:38:59.415Z,98392
2017-06-03T12:41:27.480Z,98398
2017-06-03T12:43:56.331Z,98399
2017-06-03T12:46:24.412Z,98382
2017-06-03T12:48:52.484Z,98384
2017-06-03T12:51:20.554Z,98380
2017-06-03T12:53:48.672Z,98371
2017-06-03T12:56:16.743Z,98376
2017-06-03T12:58:44.851Z,98363
2017-06-03T13:01:12.937Z,98355
2017-06-03T13:03:41.015Z,98355
2017-06-03T13:06:09.119Z,98351
2017-06-03T13:08:48.899Z,98336
2017-06-03T13:11:16.975Z,98344
2017-06-03T13:13:45.057Z,98341
2017-06-03T13:16:13.144Z,98336
2017-06-03T13:18:41.219Z,98335
2017-06-03T13:21:09.313Z,98327
2017-06-03T13:23:37.388Z,98331
2017-06-03T13:26:05.463Z,98317
2017-06-03T13:28:33.536Z,98321
2017-06-03T13:31:02.388Z,98327
2017-06-03T13:33:30.473Z,98314
2017-06-03T13:35:58.546Z,98316
2017-06-03T13:38:26.659Z,98321
2017-06-03T13:40:54.740Z,98320
2017-06-03T13:43:22.851Z,98312
2017-06-03T13:45:50.924Z,98309
2017-06-03T13:48:18.995Z,98310
2017-06-03T13:50:47.156Z,98318
2017-06-03T13:53:15.228Z,98328
2017-06-03T13:55:43.328Z,98329
2017-06-03T13:58:11.400Z,98333
2017-06-03T14:00:39.484Z,98333
2017-06-03T14:03:07.587Z,98325
2017-06-03T14:05:36.424Z,98331
2017-06-03T14:08:04.515Z,98336
2017-06-03T14:10:32.604Z,98341
2017-06-03T14:13:00.691Z,98350
2017-06-03T14:15:28.780Z,98352
2017-06-03T14:17:56.880Z,98354
2017-06-03T14:20:24.955Z,98358
2017-06-03T14:22:53.051Z,98350
2017-06-03T14:25:21.151Z,98354
2017-06-03T14:27:49.240Z,98352
2017-06-03T14:30:17.416Z,98352
2017-06-03T14:32:45.485Z,98346
2017-06-03T14:35:13.561Z,98344
2017-06-03T14:37:41.624Z,98338
2017-06-03T14:40:09.812Z,98347
2017-06-03T14:42:37.878Z,98340
2017-06-03T14:45:05.956Z,98332
2017-06-03T14:47:34.128Z,98337
2017-06-03T14:50:02.244Z,98328
2017-06-03T14:52:30.326Z,98325
2017-06-03T14:54:58.397Z,98344
2017-06-03T14:57:27.844Z,98348
2017-06-03T14:59:56.687Z,98353
2017-06-03T15:02:24.784Z,98370
2017-06-03T15:04:53.624Z,98374
2017-06-03T15:07:21.700Z,98375
2017-06-03T15:09:49.783Z,98370
2017-06-03T15:12:17.854Z,98364
2017-06-03T15:14:46.059Z,98368
2017-06-03T15:17:14.140Z,98363
2017-06-03T15:19:42.211Z,98349
2017-06-03T15:22:11.300Z,98357
2017-06-03T15:24:39.400Z,98359
2017-06-03T15:27:07.488Z,98352
2017-06-03T15:29:35.636Z,98358
2017-06-03T15:32:04.672Z,98364
2017-06-03T15:34:32.747Z,98366
2017-06-03T15:37:03.178Z,98368
2017-06-03T15:39:31.247Z,98372
2017-06-03T15:41:59.340Z,98380
2017-06-03T15:44:27.524Z,98378
2017-06-03T15:46:55.630Z,98357
2017-06-03T15:49:23.704Z,98351
2017-06-03T15:51:51.770Z,98371
2017-06-03T15:54:20.697Z,98362
2017-06-03T15:56:48.766Z,98371
2017-06-03T15:59:16.848Z,98367
2017-06-03T16:01:44.918Z,98369
2017-06-03T16:04:13.010Z,98378
2017-06-03T16:06:41.089Z,98378
2017-06-03T16:09:09.163Z,98390
2017-06-03T16:11:37.236Z,98391
2017-06-03T16:14:05.305Z,98413
2017-06-03T16:16:33.393Z,98427
2017-06-03T16:19:01.463Z,98440
2017-06-03T16:21:29.540Z,98428
2017-06-03T16:23:57.611Z,98430
2017-06-03T16:26:25.690Z,98423
2017-06-03T16:28:53.770Z,98411
2017-06-03T16:31:22.656Z,98415
2017-06-03T16:33:50.743Z,98413
2017-06-03T16:36:19.584Z,98407
2017-06-03T16:38:47.668Z,98407
2017-06-03T16:41:16.151Z,98410
2017-06-03T16:43:44.263Z,98398
2017-06-03T16:46:13.229Z,98405
2017-06-03T16:48:41.303Z,98407
2017-06-03T16:51:09.385Z,98396
2017-06-03T16:53:37.444Z,98392
2017-06-03T16:56:05.519Z,98382
2017-06-03T16:58:33.591Z,98372
2017-06-03T17:01:01.671Z,98370
2017-06-03T17:03:29.858Z,98362
2017-06-03T17:05:58.714Z,98357
2017-06-03T17:08:26.823Z,98349
2017-06-03T17:10:55.715Z,98353
2017-06-03T17:13:24.588Z,98359
2017-06-03T17:15:52.651Z,98361
2017-06-03T17:18:20.728Z,98352
2017-06-03T17:20:48.821Z,98347
2017-06-03T17:23:17.681Z,98345
2017-06-03T17:25:45.742Z,98342
2017-06-03T17:28:13.827Z,98336
2017-06-03T17:30:42.004Z,98339
2017-06-03T17:33:10.144Z,98349
2017-06-03T17:35:38.225Z,98368
2017-06-03T17:38:06.303Z,98368
2017-06-03T17:40:34.387Z,98362
2017-06-03T17:43:02.607Z,98354
2017-06-03T17:45:30.690Z,98350
2017-06-03T17:47:58.776Z,98350
2017-06-03T17:50:26.868Z,98344
2017-06-03T17:52:54.951Z,98342
2017-06-03T17:55:23.043Z,98351
2017-06-03T17:57:51.116Z,98350
2017-06-03T18:00:19.184Z,98338
2017-06-03T18:02:47.259Z,98344
2017-06-03T18:05:15.328Z,98346
2017-06-03T18:07:43.416Z,98338
2017-06-03T18:10:12.251Z,98346
2017-06-03T18:12:40.332Z,98339
2017-06-03T18:15:08.401Z,98346
2017-06-03T18:17:36.506Z,98343
2017-06-03T18:20:04.572Z,98343
2017-06-03T18:22:32.655Z,98335
2017-06-03T18:25:00.751Z,98334
2017-06-03T18:27:35.218Z,98331
2017-06-03T18:30:03.304Z,98322
2017-06-03T18:32:31.380Z,98333
2017-06-03T18:34:59.469Z,98330
2017-06-03T18:37:27.600Z,98332
2017-06-03T18:39:55.700Z,98329
2017-06-03T18:42:23.782Z,98321
2017-06-03T18:44:51.853Z,98324
2017-06-03T18:47:19.939Z,98321
2017-06-03T18:49:48.115Z,98329
2017-06-03T18:52:16.200Z,98324
2017-06-03T18:54:45.056Z,98320
2017-06-03T18:57:13.167Z,98316
2017-06-03T18:59:41.244Z,98324
2017-06-03T19:02:10.172Z,98317
2017-06-03T19:04:38.247Z,98320
2017-06-03T19:07:06.315Z,98321
2017-06-03T19:09:34.417Z,98312
2017-06-03T19:12:02.507Z,98320
2017-06-03T19:14:31.373Z,98311
2017-06-03T19:16:59.453Z,98319
2017-06-03T19:19:27.911Z,98314
2017-06-03T19:21:55.990Z,98319
2017-06-03T19:24:24.104Z,98313
2017-06-03T19:26:52.984Z,98312
2017-06-03T19:29:21.065Z,98311
2017-06-03T19:31:49.142Z,98307
2017-06-03T19:34:18.203Z,98313
2017-06-03T19:36:46.295Z,98315
2017-06-03T19:39:14.375Z,98320
2017-06-03T19:41:42.455Z,98321
2017-06-03T19:44:11.296Z,98325
2017-06-03T19:46:39.412Z,98325
2017-06-03T19:49:07.534Z,98329
2017-06-03T19:51:35.612Z,98328
2017-06-03T19:54:03.719Z,98320
2017-06-03T19:56:32.577Z,98331
2017-06-03T19:59:00.659Z,98331
2017-06-03T20:01:28.742Z,98332
2017-06-03T20:03:56.845Z,98335
2017-06-03T20:06:25.710Z,98330
2017-06-03T20:08:53.816Z,98333
2017-06-03T20:11:22.656Z,98332
2017-06-03T20:13:50.728Z,98329
2017-06-03T20:16:18.848Z,98321
2017-06-03T20:18:47.684Z,98321
2017-06-03T20:21:15.777Z,98331
2017-06-03T20:23:43.847Z,98327
2017-06-03T20:26:11.999Z,98320
2017-06-03T20:28:40.088Z,98310
2017-06-03T20:31:08.183Z,98311
2017-06-03T20:33:36.261Z,98303
2017-06-03T20:36:04.342Z,98310
2017-06-03T20:38:33.191Z,98310
2017-06-03T20:41:01.287Z,98306
2017-06-03T20:43:29.360Z,98303
2017-06-03T20:45:57.446Z,98298
2017-06-03T20:48:25.535Z,98303
2017-06-03T20:50:54.387Z,98295
2017-06-03T20:53:22.455Z,98296
2017-06-03T20:55:50.584Z,98284
2017-06-03T20:58:18.670Z,98289
2017-06-03T21:00:46.761Z,98281
2017-06-03T21:03:14.841Z,98281
2017-06-03T21:05:42.919Z,98275
2017-06-03T21:08:11.076Z,98271
2017-06-03T21:10:39.185Z,98271
2017-06-03T21:13:07.268Z,98263
2017-06-03T21:15:36.117Z,98257
2017-06-03T21:18:04.219Z,98255
2017-06-03T21:20:32.309Z,98251
2017-06-03T21:23:00.401Z,98258
2017-06-03T21:25:28.507Z,98263
2017-06-03T21:27:56.592Z,98259
2017-06-03T21:30:24.700Z,98257
2017-06-03T21:32:53.563Z,98250
2017-06-03T21:35:21.660Z,98260
2017-06-03T21:37:49.734Z,98258
2017-06-03T21:40:20.134Z,98265
2017-06-03T21:42:48.208Z,98254
2017-06-03T21:45:16.299Z,98260
2017-06-03T21:47:44.371Z,98247
2017-06-03T21:50:12.463Z,98253
2017-06-03T21:52:41.311Z,98248
2017-06-03T21:55:09.399Z,98247
2017-06-03T21:57:37.488Z,98243
2017-06-03T22:00:06.335Z,98238
2017-06-03T22:02:34.454Z,98243
2017-06-03T22:05:03.308Z,98239
2017-06-03T22:07:31.483Z,98227
2017-06-03T22:09:59.559Z,98233
2017-06-03T22:12:27.643Z,98221
2017-06-03T22:14:55.715Z,98230
2017-06-03T22:17:23.800Z,98232
2017-06-03T22:19:51.944Z,98235
2017-06-03T22:22:20.020Z,98228
2017-06-03T22:24:48.108Z,98225
2017-06-03T22:27:16.290Z,98230
2017-06-03T22:29:45.276Z,98232
2017-06-03T22:32:13.348Z,98237
2017-06-03T22:34:41.525Z,98243
2017-06-03T22:37:09.600Z,98232
2017-06-03T22:39:37.668Z,98225
2017-06-03T22:42:05.753Z,98220
2017-06-03T22:44:33.845Z,98216
2017-06-03T22:47:02.016Z,98220
2017-06-03T22:49:31.051Z,98215
2017-06-03T22:51:59.132Z,98211
2017-06-03T22:54:27.203Z,98221
2017-06-03T22:56:55.331Z,98217
2017-06-03T22:59:23.404Z,98218
2017-06-03T23:01:51.475Z,98208
2017-06-03T23:04:20.319Z,98212
2017-06-03T23:06:48.395Z,98206
2017-06-03T23:09:16.479Z,98204
2017-06-03T23:11:44.555Z,98197
2017-06-03T23:14:12.631Z,98197
2017-06-03T23:16:40.699Z,98192
2017-06-03T23:19:08.804Z,98187
2017-06-03T23:21:36.877Z,98193
2017-06-03T23:24:05.724Z,98188
2017-06-03T23:26:33.800Z,98198
2017-06-03T23:29:01.909Z,98202
2017-06-03T23:31:29.993Z,98207
2017-06-03T23:33:58.152Z,98215
2017-06-03T23:36:26.259Z,98214
2017-06-03T23:38:54.347Z,98220
2017-06-03T23:41:22.424Z,98230
2017-06-03T23:43:50.507Z,98229
2017-06-03T23:46:18.584Z,98232
2017-06-03T23:48:46.675Z,98236
2017-06-03T23:51:14.940Z,98224
2017-06-03T23:53:43.028Z,98225
2017-06-03T23:56:11.112Z,98225
2017-06-03T23:58:39.976Z,98222
